sensor_id;sensor_type;location;lat;lon;timestamp;P1;durP1;ratioP1;P2;durP2;ratioP2
18576;SDS011;9418;52.694;13.294;2023-08-31T00:00:41;5.70;;;3.50;;
18576;SDS011;9418;52.694;13.294;2023-08-31T00:03:08;3.57;;;2.70;;
18576;SDS011;9418;52.694;13.294;2023-08-31T00:05:36;2.97;;;2.77;;
18576;SDS011;9418;52.694;13.294;2023-08-31T00:08:04;5.03;;;3.17;;
18576;SDS011;9418;52.694;13.294;2023-08-31T00:10:31;7.60;;;3.47;;
18576;SDS011;9418;52.694;13.294;2023-08-31T00:12:58;6.77;;;3.00;;
18576;SDS011;9418;52.694;13.294;2023-08-31T00:15:24;10.70;;;3.50;;
18576;SDS011;9418;52.694;13.294;2023-08-31T00:17:54;4.87;;;2.70;;
18576;SDS011;9418;52.694;13.294;2023-08-31T00:20:21;4.63;;;3.23;;
18576;SDS011;9418;52.694;13.294;2023-08-31T00:22:48;4.07;;;3.67;;
18576;SDS011;9418;52.694;13.294;2023-08-31T00:25:14;4.30;;;3.50;;
18576;SDS011;9418;52.694;13.294;2023-08-31T00:27:41;3.83;;;3.33;;
18576;SDS011;9418;52.694;13.294;2023-08-31T00:30:08;3.70;;;3.40;;
18576;SDS011;9418;52.694;13.294;2023-08-31T00:32:39;3.33;;;3.03;;
18576;SDS011;9418;52.694;13.294;2023-08-31T00:35:09;3.37;;;3.07;;
18576;SDS011;9418;52.694;13.294;2023-08-31T00:37:35;4.40;;;3.03;;
18576;SDS011;9418;52.694;13.294;2023-08-31T00:40:03;3.93;;;3.23;;
18576;SDS011;9418;52.694;13.294;2023-08-31T00:42:33;5.27;;;3.53;;
18576;SDS011;9418;52.694;13.294;2023-08-31T00:45:00;3.67;;;3.30;;
18576;SDS011;9418;52.694;13.294;2023-08-31T00:47:27;3.50;;;3.20;;
18576;SDS011;9418;52.694;13.294;2023-08-31T00:49:53;3.80;;;2.97;;
18576;SDS011;9418;52.694;13.294;2023-08-31T00:52:22;3.70;;;3.30;;
18576;SDS011;9418;52.694;13.294;2023-08-31T00:54:49;7.57;;;4.27;;
18576;SDS011;9418;52.694;13.294;2023-08-31T00:57:18;3.90;;;3.33;;
18576;SDS011;9418;52.694;13.294;2023-08-31T00:59:45;5.37;;;3.77;;
18576;SDS011;9418;52.694;13.294;2023-08-31T01:02:13;3.63;;;3.33;;
18576;SDS011;9418;52.694;13.294;2023-08-31T01:05:03;3.30;;;3.10;;
18576;SDS011;9418;52.694;13.294;2023-08-31T01:07:37;4.17;;;3.77;;
18576;SDS011;9418;52.694;13.294;2023-08-31T01:10:11;3.33;;;3.13;;
18576;SDS011;9418;52.694;13.294;2023-08-31T01:12:44;4.40;;;4.00;;
18576;SDS011;9418;52.694;13.294;2023-08-31T01:15:17;4.47;;;4.13;;
18576;SDS011;9418;52.694;13.294;2023-08-31T01:17:44;3.80;;;3.50;;
18576;SDS011;9418;52.694;13.294;2023-08-31T01:20:16;6.07;;;3.83;;
18576;SDS011;9418;52.694;13.294;2023-08-31T01:22:48;6.40;;;4.43;;
18576;SDS011;9418;52.694;13.294;2023-08-31T01:25:22;6.67;;;4.07;;
18576;SDS011;9418;52.694;13.294;2023-08-31T01:27:50;5.63;;;5.03;;
18576;SDS011;9418;52.694;13.294;2023-08-31T01:30:17;4.57;;;4.23;;
18576;SDS011;9418;52.694;13.294;2023-08-31T01:32:44;4.90;;;4.37;;
18576;SDS011;9418;52.694;13.294;2023-08-31T01:35:11;5.30;;;4.80;;
18576;SDS011;9418;52.694;13.294;2023-08-31T01:37:44;4.33;;;4.03;;
18576;SDS011;9418;52.694;13.294;2023-08-31T01:40:14;4.20;;;3.87;;
18576;SDS011;9418;52.694;13.294;2023-08-31T01:42:46;11.00;;;5.20;;
18576;SDS011;9418;52.694;13.294;2023-08-31T01:45:15;5.00;;;4.70;;
18576;SDS011;9418;52.694;13.294;2023-08-31T01:47:45;5.07;;;4.67;;
18576;SDS011;9418;52.694;13.294;2023-08-31T01:50:12;7.57;;;4.10;;
18576;SDS011;9418;52.694;13.294;2023-08-31T01:52:38;6.50;;;4.37;;
18576;SDS011;9418;52.694;13.294;2023-08-31T01:55:05;5.03;;;4.53;;
18576;SDS011;9418;52.694;13.294;2023-08-31T01:57:32;4.97;;;4.60;;
18576;SDS011;9418;52.694;13.294;2023-08-31T02:00:00;9.97;;;4.27;;
18576;SDS011;9418;52.694;13.294;2023-08-31T02:02:28;4.77;;;4.30;;
18576;SDS011;9418;52.694;13.294;2023-08-31T02:04:55;4.67;;;4.17;;
18576;SDS011;9418;52.694;13.294;2023-08-31T02:07:22;4.43;;;4.03;;
18576;SDS011;9418;52.694;13.294;2023-08-31T02:09:48;4.60;;;3.97;;
18576;SDS011;9418;52.694;13.294;2023-08-31T02:12:15;4.30;;;4.00;;
18576;SDS011;9418;52.694;13.294;2023-08-31T02:14:41;4.77;;;3.93;;
18576;SDS011;9418;52.694;13.294;2023-08-31T02:17:09;4.50;;;4.10;;
18576;SDS011;9418;52.694;13.294;2023-08-31T02:19:36;4.37;;;4.03;;
18576;SDS011;9418;52.694;13.294;2023-08-31T02:22:02;4.40;;;3.47;;
18576;SDS011;9418;52.694;13.294;2023-08-31T02:24:29;3.80;;;3.50;;
18576;SDS011;9418;52.694;13.294;2023-08-31T02:26:56;4.33;;;3.93;;
18576;SDS011;9418;52.694;13.294;2023-08-31T02:29:22;3.87;;;3.57;;
18576;SDS011;9418;52.694;13.294;2023-08-31T02:31:49;3.93;;;3.53;;
18576;SDS011;9418;52.694;13.294;2023-08-31T02:34:17;4.67;;;4.27;;
18576;SDS011;9418;52.694;13.294;2023-08-31T02:36:43;4.80;;;3.30;;
18576;SDS011;9418;52.694;13.294;2023-08-31T02:39:10;3.40;;;3.10;;
18576;SDS011;9418;52.694;13.294;2023-08-31T02:41:38;3.37;;;3.07;;
18576;SDS011;9418;52.694;13.294;2023-08-31T02:44:04;3.63;;;3.33;;
18576;SDS011;9418;52.694;13.294;2023-08-31T02:46:31;3.80;;;3.40;;
18576;SDS011;9418;52.694;13.294;2023-08-31T02:48:58;2.83;;;2.63;;
18576;SDS011;9418;52.694;13.294;2023-08-31T02:51:25;2.87;;;2.67;;
18576;SDS011;9418;52.694;13.294;2023-08-31T02:53:52;2.90;;;2.70;;
18576;SDS011;9418;52.694;13.294;2023-08-31T02:56:19;4.10;;;2.37;;
18576;SDS011;9418;52.694;13.294;2023-08-31T02:58:45;4.57;;;3.03;;
18576;SDS011;9418;52.694;13.294;2023-08-31T03:01:12;2.80;;;2.60;;
18576;SDS011;9418;52.694;13.294;2023-08-31T03:03:40;2.93;;;2.73;;
18576;SDS011;9418;52.694;13.294;2023-08-31T03:06:08;3.13;;;2.93;;
18576;SDS011;9418;52.694;13.294;2023-08-31T03:08:37;2.23;;;2.00;;
18576;SDS011;9418;52.694;13.294;2023-08-31T03:11:04;2.60;;;2.40;;
18576;SDS011;9418;52.694;13.294;2023-08-31T03:13:31;3.73;;;3.00;;
18576;SDS011;9418;52.694;13.294;2023-08-31T03:15:59;2.90;;;2.57;;
18576;SDS011;9418;52.694;13.294;2023-08-31T03:18:26;3.13;;;2.80;;
18576;SDS011;9418;52.694;13.294;2023-08-31T03:20:54;3.53;;;2.80;;
18576;SDS011;9418;52.694;13.294;2023-08-31T03:23:21;3.17;;;2.70;;
18576;SDS011;9418;52.694;13.294;2023-08-31T03:25:48;2.83;;;2.30;;
18576;SDS011;9418;52.694;13.294;2023-08-31T03:28:15;3.40;;;3.10;;
18576;SDS011;9418;52.694;13.294;2023-08-31T03:30:42;2.20;;;2.10;;
18576;SDS011;9418;52.694;13.294;2023-08-31T03:33:10;2.80;;;2.57;;
18576;SDS011;9418;52.694;13.294;2023-08-31T03:35:36;3.43;;;2.67;;
18576;SDS011;9418;52.694;13.294;2023-08-31T03:38:03;2.77;;;2.57;;
18576;SDS011;9418;52.694;13.294;2023-08-31T03:40:30;2.70;;;2.50;;
18576;SDS011;9418;52.694;13.294;2023-08-31T03:42:58;2.80;;;2.60;;
18576;SDS011;9418;52.694;13.294;2023-08-31T03:45:25;3.60;;;2.50;;
18576;SDS011;9418;52.694;13.294;2023-08-31T03:47:52;2.77;;;2.57;;
18576;SDS011;9418;52.694;13.294;2023-08-31T03:50:18;2.27;;;2.17;;
18576;SDS011;9418;52.694;13.294;2023-08-31T03:52:45;3.80;;;2.47;;
18576;SDS011;9418;52.694;13.294;2023-08-31T03:55:11;2.77;;;2.57;;
18576;SDS011;9418;52.694;13.294;2023-08-31T03:57:38;2.60;;;2.40;;
18576;SDS011;9418;52.694;13.294;2023-08-31T04:00:07;3.57;;;2.87;;
18576;SDS011;9418;52.694;13.294;2023-08-31T04:02:35;4.00;;;2.47;;
18576;SDS011;9418;52.694;13.294;2023-08-31T04:05:02;3.13;;;2.93;;
18576;SDS011;9418;52.694;13.294;2023-08-31T04:07:30;5.10;;;2.90;;
18576;SDS011;9418;52.694;13.294;2023-08-31T04:09:57;3.83;;;3.47;;
18576;SDS011;9418;52.694;13.294;2023-08-31T04:12:24;2.87;;;2.67;;
18576;SDS011;9418;52.694;13.294;2023-08-31T04:14:51;2.83;;;2.63;;
18576;SDS011;9418;52.694;13.294;2023-08-31T04:17:19;3.80;;;3.50;;
18576;SDS011;9418;52.694;13.294;2023-08-31T04:19:45;3.97;;;3.40;;
18576;SDS011;9418;52.694;13.294;2023-08-31T04:22:12;3.63;;;3.33;;
18576;SDS011;9418;52.694;13.294;2023-08-31T04:24:38;3.80;;;3.50;;
18576;SDS011;9418;52.694;13.294;2023-08-31T04:27:05;4.27;;;3.87;;
18576;SDS011;9418;52.694;13.294;2023-08-31T04:29:33;6.30;;;3.40;;
18576;SDS011;9418;52.694;13.294;2023-08-31T04:31:58;4.17;;;3.87;;
18576;SDS011;9418;52.694;13.294;2023-08-31T04:34:26;4.07;;;3.50;;
18576;SDS011;9418;52.694;13.294;2023-08-31T04:36:53;3.83;;;3.50;;
18576;SDS011;9418;52.694;13.294;2023-08-31T04:39:20;3.70;;;3.40;;
18576;SDS011;9418;52.694;13.294;2023-08-31T04:41:47;4.47;;;4.03;;
18576;SDS011;9418;52.694;13.294;2023-08-31T04:44:13;4.10;;;3.80;;
18576;SDS011;9418;52.694;13.294;2023-08-31T04:46:40;4.47;;;4.17;;
18576;SDS011;9418;52.694;13.294;2023-08-31T04:49:06;4.37;;;3.97;;
18576;SDS011;9418;52.694;13.294;2023-08-31T04:51:41;4.67;;;4.13;;
18576;SDS011;9418;52.694;13.294;2023-08-31T04:54:24;5.70;;;5.20;;
18576;SDS011;9418;52.694;13.294;2023-08-31T04:56:58;5.77;;;5.10;;
18576;SDS011;9418;52.694;13.294;2023-08-31T04:59:25;5.30;;;4.17;;
18576;SDS011;9418;52.694;13.294;2023-08-31T05:01:52;6.50;;;5.17;;
18576;SDS011;9418;52.694;13.294;2023-08-31T05:04:18;6.83;;;4.70;;
18576;SDS011;9418;52.694;13.294;2023-08-31T05:06:46;6.10;;;5.50;;
18576;SDS011;9418;52.694;13.294;2023-08-31T05:09:13;5.90;;;5.30;;
18576;SDS011;9418;52.694;13.294;2023-08-31T05:11:40;6.10;;;5.50;;
18576;SDS011;9418;52.694;13.294;2023-08-31T05:14:07;6.67;;;6.07;;
18576;SDS011;9418;52.694;13.294;2023-08-31T05:16:33;5.57;;;5.07;;
18576;SDS011;9418;52.694;13.294;2023-08-31T05:19:00;6.97;;;5.40;;
18576;SDS011;9418;52.694;13.294;2023-08-31T05:21:26;11.53;;;6.13;;
18576;SDS011;9418;52.694;13.294;2023-08-31T05:23:54;6.10;;;5.60;;
18576;SDS011;9418;52.694;13.294;2023-08-31T05:26:21;7.10;;;6.40;;
18576;SDS011;9418;52.694;13.294;2023-08-31T05:28:48;7.93;;;6.83;;
18576;SDS011;9418;52.694;13.294;2023-08-31T05:31:15;6.57;;;5.97;;
18576;SDS011;9418;52.694;13.294;2023-08-31T05:33:42;9.90;;;6.30;;
18576;SDS011;9418;52.694;13.294;2023-08-31T05:36:08;8.93;;;7.20;;
18576;SDS011;9418;52.694;13.294;2023-08-31T05:38:35;9.50;;;6.90;;
18576;SDS011;9418;52.694;13.294;2023-08-31T05:41:06;10.93;;;7.50;;
18576;SDS011;9418;52.694;13.294;2023-08-31T05:43:34;9.93;;;6.83;;
18576;SDS011;9418;52.694;13.294;2023-08-31T05:46:01;13.00;;;6.90;;
18576;SDS011;9418;52.694;13.294;2023-08-31T05:48:29;8.77;;;7.90;;
18576;SDS011;9418;52.694;13.294;2023-08-31T05:50:56;7.63;;;6.87;;
18576;SDS011;9418;52.694;13.294;2023-08-31T05:53:23;8.53;;;6.90;;
18576;SDS011;9418;52.694;13.294;2023-08-31T05:55:49;9.23;;;7.50;;
18576;SDS011;9418;52.694;13.294;2023-08-31T05:58:17;9.53;;;6.83;;
18576;SDS011;9418;52.694;13.294;2023-08-31T06:00:44;10.83;;;7.53;;
18576;SDS011;9418;52.694;13.294;2023-08-31T06:03:11;8.33;;;7.53;;
18576;SDS011;9418;52.694;13.294;2023-08-31T06:05:37;11.43;;;7.20;;
18576;SDS011;9418;52.694;13.294;2023-08-31T06:08:04;8.93;;;6.93;;
18576;SDS011;9418;52.694;13.294;2023-08-31T06:10:31;9.90;;;7.40;;
18576;SDS011;9418;52.694;13.294;2023-08-31T06:12:58;8.23;;;7.43;;
18576;SDS011;9418;52.694;13.294;2023-08-31T06:15:26;12.53;;;7.13;;
18576;SDS011;9418;52.694;13.294;2023-08-31T06:17:52;11.40;;;7.40;;
18576;SDS011;9418;52.694;13.294;2023-08-31T06:20:19;8.23;;;7.33;;
18576;SDS011;9418;52.694;13.294;2023-08-31T06:22:46;8.60;;;7.57;;
18576;SDS011;9418;52.694;13.294;2023-08-31T06:25:12;13.20;;;7.70;;
18576;SDS011;9418;52.694;13.294;2023-08-31T06:27:41;10.43;;;7.60;;
18576;SDS011;9418;52.694;13.294;2023-08-31T06:30:08;8.93;;;6.80;;
18576;SDS011;9418;52.694;13.294;2023-08-31T06:32:42;9.03;;;7.57;;
18576;SDS011;9418;52.694;13.294;2023-08-31T06:35:09;7.83;;;7.03;;
18576;SDS011;9418;52.694;13.294;2023-08-31T06:37:35;10.30;;;6.90;;
18576;SDS011;9418;52.694;13.294;2023-08-31T06:40:02;7.50;;;6.73;;
18576;SDS011;9418;52.694;13.294;2023-08-31T06:42:29;8.67;;;7.50;;
18576;SDS011;9418;52.694;13.294;2023-08-31T06:44:56;9.27;;;7.57;;
18576;SDS011;9418;52.694;13.294;2023-08-31T06:47:23;8.17;;;7.07;;
18576;SDS011;9418;52.694;13.294;2023-08-31T06:49:50;12.90;;;7.20;;
18576;SDS011;9418;52.694;13.294;2023-08-31T06:52:18;10.80;;;7.60;;
18576;SDS011;9418;52.694;13.294;2023-08-31T06:54:44;16.70;;;7.40;;
18576;SDS011;9418;52.694;13.294;2023-08-31T06:57:11;8.20;;;7.43;;
18576;SDS011;9418;52.694;13.294;2023-08-31T06:59:39;17.70;;;7.90;;
18576;SDS011;9418;52.694;13.294;2023-08-31T07:02:06;10.40;;;6.47;;
18576;SDS011;9418;52.694;13.294;2023-08-31T07:04:32;7.87;;;7.03;;
18576;SDS011;9418;52.694;13.294;2023-08-31T07:07:01;8.00;;;6.57;;
18576;SDS011;9418;52.694;13.294;2023-08-31T07:09:27;11.13;;;5.70;;
18576;SDS011;9418;52.694;13.294;2023-08-31T07:11:54;7.13;;;6.27;;
18576;SDS011;9418;52.694;13.294;2023-08-31T07:14:20;6.47;;;5.63;;
18576;SDS011;9418;52.694;13.294;2023-08-31T07:16:47;11.93;;;7.10;;
18576;SDS011;9418;52.694;13.294;2023-08-31T07:19:14;6.10;;;5.50;;
18576;SDS011;9418;52.694;13.294;2023-08-31T07:21:40;9.37;;;5.70;;
18576;SDS011;9418;52.694;13.294;2023-08-31T07:24:08;5.30;;;4.80;;
18576;SDS011;9418;52.694;13.294;2023-08-31T07:26:35;10.20;;;5.40;;
18576;SDS011;9418;52.694;13.294;2023-08-31T07:29:01;5.33;;;4.83;;
18576;SDS011;9418;52.694;13.294;2023-08-31T07:31:29;8.70;;;5.33;;
18576;SDS011;9418;52.694;13.294;2023-08-31T07:33:56;9.23;;;5.10;;
18576;SDS011;9418;52.694;13.294;2023-08-31T07:36:23;8.53;;;4.80;;
18576;SDS011;9418;52.694;13.294;2023-08-31T07:38:50;7.87;;;5.03;;
18576;SDS011;9418;52.694;13.294;2023-08-31T07:41:17;7.37;;;4.80;;
18576;SDS011;9418;52.694;13.294;2023-08-31T07:43:44;7.70;;;4.60;;
18576;SDS011;9418;52.694;13.294;2023-08-31T07:46:11;5.13;;;3.80;;
18576;SDS011;9418;52.694;13.294;2023-08-31T07:48:37;7.20;;;3.57;;
18576;SDS011;9418;52.694;13.294;2023-08-31T07:51:04;5.87;;;3.43;;
18576;SDS011;9418;52.694;13.294;2023-08-31T07:53:31;9.07;;;3.83;;
18576;SDS011;9418;52.694;13.294;2023-08-31T07:55:57;13.23;;;3.40;;
18576;SDS011;9418;52.694;13.294;2023-08-31T07:58:25;11.00;;;4.17;;
18576;SDS011;9418;52.694;13.294;2023-08-31T08:00:52;8.70;;;4.00;;
18576;SDS011;9418;52.694;13.294;2023-08-31T08:03:19;8.47;;;4.13;;
18576;SDS011;9418;52.694;13.294;2023-08-31T08:05:46;4.53;;;3.50;;
18576;SDS011;9418;52.694;13.294;2023-08-31T08:08:13;8.33;;;4.50;;
18576;SDS011;9418;52.694;13.294;2023-08-31T08:10:39;6.67;;;4.73;;
18576;SDS011;9418;52.694;13.294;2023-08-31T08:13:08;10.17;;;4.53;;
18576;SDS011;9418;52.694;13.294;2023-08-31T08:15:36;10.73;;;4.33;;
18576;SDS011;9418;52.694;13.294;2023-08-31T08:18:03;6.60;;;3.57;;
18576;SDS011;9418;52.694;13.294;2023-08-31T08:20:31;8.53;;;3.73;;
18576;SDS011;9418;52.694;13.294;2023-08-31T08:22:57;6.33;;;4.00;;
18576;SDS011;9418;52.694;13.294;2023-08-31T08:25:24;9.60;;;3.50;;
18576;SDS011;9418;52.694;13.294;2023-08-31T08:27:51;12.23;;;2.93;;
18576;SDS011;9418;52.694;13.294;2023-08-31T08:30:17;9.13;;;3.40;;
18576;SDS011;9418;52.694;13.294;2023-08-31T08:32:45;8.33;;;2.73;;
18576;SDS011;9418;52.694;13.294;2023-08-31T08:35:12;11.80;;;2.80;;
18576;SDS011;9418;52.694;13.294;2023-08-31T08:37:39;3.30;;;3.00;;
18576;SDS011;9418;52.694;13.294;2023-08-31T08:40:06;4.37;;;3.67;;
18576;SDS011;9418;52.694;13.294;2023-08-31T08:42:36;6.00;;;2.97;;
18576;SDS011;9418;52.694;13.294;2023-08-31T08:45:07;8.70;;;2.90;;
18576;SDS011;9418;52.694;13.294;2023-08-31T08:47:37;4.70;;;2.20;;
18576;SDS011;9418;52.694;13.294;2023-08-31T08:50:07;3.57;;;2.23;;
18576;SDS011;9418;52.694;13.294;2023-08-31T08:52:36;5.97;;;2.60;;
18576;SDS011;9418;52.694;13.294;2023-08-31T08:55:03;6.43;;;2.37;;
18576;SDS011;9418;52.694;13.294;2023-08-31T08:57:30;4.63;;;2.10;;
18576;SDS011;9418;52.694;13.294;2023-08-31T08:59:57;4.40;;;2.10;;
18576;SDS011;9418;52.694;13.294;2023-08-31T09:02:24;2.07;;;1.80;;
18576;SDS011;9418;52.694;13.294;2023-08-31T09:04:50;3.20;;;1.57;;
18576;SDS011;9418;52.694;13.294;2023-08-31T09:07:21;8.67;;;1.67;;
18576;SDS011;9418;52.694;13.294;2023-08-31T09:09:48;7.53;;;2.20;;
18576;SDS011;9418;52.694;13.294;2023-08-31T09:12:16;6.20;;;1.70;;
18576;SDS011;9418;52.694;13.294;2023-08-31T09:14:42;4.10;;;1.80;;
18576;SDS011;9418;52.694;13.294;2023-08-31T09:17:09;6.83;;;2.20;;
18576;SDS011;9418;52.694;13.294;2023-08-31T09:19:36;8.57;;;1.90;;
18576;SDS011;9418;52.694;13.294;2023-08-31T09:22:03;3.60;;;1.70;;
18576;SDS011;9418;52.694;13.294;2023-08-31T09:24:40;5.97;;;2.30;;
18576;SDS011;9418;52.694;13.294;2023-08-31T09:27:09;8.23;;;1.83;;
18576;SDS011;9418;52.694;13.294;2023-08-31T09:29:37;3.30;;;1.37;;
18576;SDS011;9418;52.694;13.294;2023-08-31T09:32:04;10.23;;;1.90;;
18576;SDS011;9418;52.694;13.294;2023-08-31T09:34:32;5.80;;;1.43;;
18576;SDS011;9418;52.694;13.294;2023-08-31T09:37:03;5.50;;;1.70;;
18576;SDS011;9418;52.694;13.294;2023-08-31T09:39:35;9.50;;;1.77;;
18576;SDS011;9418;52.694;13.294;2023-08-31T09:42:03;7.77;;;1.67;;
18576;SDS011;9418;52.694;13.294;2023-08-31T09:44:30;3.93;;;1.83;;
18576;SDS011;9418;52.694;13.294;2023-08-31T09:46:56;1.50;;;1.23;;
18576;SDS011;9418;52.694;13.294;2023-08-31T09:49:24;6.43;;;2.53;;
18576;SDS011;9418;52.694;13.294;2023-08-31T09:51:51;4.87;;;1.57;;
18576;SDS011;9418;52.694;13.294;2023-08-31T09:54:19;3.07;;;2.27;;
18576;SDS011;9418;52.694;13.294;2023-08-31T09:56:47;5.43;;;1.67;;
18576;SDS011;9418;52.694;13.294;2023-08-31T09:59:15;2.77;;;1.00;;
18576;SDS011;9418;52.694;13.294;2023-08-31T10:01:43;5.57;;;1.40;;
18576;SDS011;9418;52.694;13.294;2023-08-31T10:04:11;3.40;;;1.20;;
18576;SDS011;9418;52.694;13.294;2023-08-31T10:06:39;2.70;;;1.40;;
18576;SDS011;9418;52.694;13.294;2023-08-31T10:09:06;4.27;;;1.40;;
18576;SDS011;9418;52.694;13.294;2023-08-31T10:11:34;11.93;;;1.97;;
18576;SDS011;9418;52.694;13.294;2023-08-31T10:14:01;2.60;;;1.40;;
18576;SDS011;9418;52.694;13.294;2023-08-31T10:16:30;2.77;;;1.43;;
18576;SDS011;9418;52.694;13.294;2023-08-31T10:18:58;4.00;;;1.33;;
18576;SDS011;9418;52.694;13.294;2023-08-31T10:21:25;3.53;;;1.50;;
18576;SDS011;9418;52.694;13.294;2023-08-31T10:23:51;4.20;;;1.40;;
18576;SDS011;9418;52.694;13.294;2023-08-31T10:26:24;4.03;;;1.30;;
18576;SDS011;9418;52.694;13.294;2023-08-31T10:28:52;8.60;;;1.30;;
18576;SDS011;9418;52.694;13.294;2023-08-31T10:31:19;3.80;;;1.40;;
18576;SDS011;9418;52.694;13.294;2023-08-31T10:33:54;4.80;;;1.60;;
18576;SDS011;9418;52.694;13.294;2023-08-31T10:36:22;3.90;;;1.47;;
18576;SDS011;9418;52.694;13.294;2023-08-31T10:39:05;4.63;;;1.40;;
18576;SDS011;9418;52.694;13.294;2023-08-31T10:41:33;3.10;;;1.43;;
18576;SDS011;9418;52.694;13.294;2023-08-31T10:44:00;3.07;;;1.37;;
18576;SDS011;9418;52.694;13.294;2023-08-31T10:46:28;4.60;;;2.20;;
18576;SDS011;9418;52.694;13.294;2023-08-31T10:48:57;2.60;;;1.27;;
18576;SDS011;9418;52.694;13.294;2023-08-31T10:51:25;6.37;;;1.60;;
18576;SDS011;9418;52.694;13.294;2023-08-31T10:56:40;7.67;;;1.67;;
18576;SDS011;9418;52.694;13.294;2023-08-31T10:59:41;8.50;;;1.87;;
18576;SDS011;9418;52.694;13.294;2023-08-31T11:02:26;8.43;;;1.97;;
18576;SDS011;9418;52.694;13.294;2023-08-31T11:04:56;11.67;;;2.00;;
18576;SDS011;9418;52.694;13.294;2023-08-31T11:07:28;7.20;;;1.40;;
18576;SDS011;9418;52.694;13.294;2023-08-31T11:10:06;4.57;;;1.40;;
18576;SDS011;9418;52.694;13.294;2023-08-31T11:12:40;4.80;;;1.37;;
18576;SDS011;9418;52.694;13.294;2023-08-31T11:15:08;3.87;;;1.60;;
18576;SDS011;9418;52.694;13.294;2023-08-31T11:17:37;5.83;;;1.60;;
18576;SDS011;9418;52.694;13.294;2023-08-31T11:20:07;4.57;;;1.80;;
18576;SDS011;9418;52.694;13.294;2023-08-31T11:22:38;2.93;;;1.40;;
18576;SDS011;9418;52.694;13.294;2023-08-31T11:25:05;2.80;;;1.20;;
18576;SDS011;9418;52.694;13.294;2023-08-31T11:27:33;4.03;;;1.47;;
18576;SDS011;9418;52.694;13.294;2023-08-31T11:29:59;4.83;;;1.80;;
18576;SDS011;9418;52.694;13.294;2023-08-31T11:32:26;4.30;;;1.60;;
18576;SDS011;9418;52.694;13.294;2023-08-31T11:34:53;2.10;;;1.37;;
18576;SDS011;9418;52.694;13.294;2023-08-31T11:37:20;1.80;;;1.30;;
18576;SDS011;9418;52.694;13.294;2023-08-31T11:39:48;7.17;;;1.40;;
18576;SDS011;9418;52.694;13.294;2023-08-31T11:42:16;3.83;;;1.30;;
18576;SDS011;9418;52.694;13.294;2023-08-31T11:44:43;2.40;;;1.77;;
18576;SDS011;9418;52.694;13.294;2023-08-31T11:47:11;1.37;;;1.27;;
18576;SDS011;9418;52.694;13.294;2023-08-31T11:49:38;2.27;;;1.40;;
18576;SDS011;9418;52.694;13.294;2023-08-31T11:52:06;4.23;;;1.60;;
18576;SDS011;9418;52.694;13.294;2023-08-31T11:54:34;2.03;;;1.83;;
18576;SDS011;9418;52.694;13.294;2023-08-31T11:57:03;2.53;;;1.30;;
18576;SDS011;9418;52.694;13.294;2023-08-31T11:59:33;1.57;;;1.20;;
18576;SDS011;9418;52.694;13.294;2023-08-31T12:02:00;2.50;;;1.30;;
18576;SDS011;9418;52.694;13.294;2023-08-31T12:04:27;2.30;;;1.50;;
18576;SDS011;9418;52.694;13.294;2023-08-31T12:07:00;14.33;;;1.80;;
18576;SDS011;9418;52.694;13.294;2023-08-31T12:09:29;6.67;;;1.60;;
18576;SDS011;9418;52.694;13.294;2023-08-31T12:11:58;5.70;;;1.57;;
18576;SDS011;9418;52.694;13.294;2023-08-31T12:14:26;3.47;;;1.60;;
18576;SDS011;9418;52.694;13.294;2023-08-31T12:16:59;5.07;;;1.40;;
18576;SDS011;9418;52.694;13.294;2023-08-31T12:19:28;2.47;;;1.27;;
18576;SDS011;9418;52.694;13.294;2023-08-31T12:21:55;4.20;;;1.87;;
18576;SDS011;9418;52.694;13.294;2023-08-31T12:24:22;2.77;;;1.70;;
18576;SDS011;9418;52.694;13.294;2023-08-31T12:26:49;3.70;;;2.07;;
18576;SDS011;9418;52.694;13.294;2023-08-31T12:29:17;6.90;;;1.80;;
18576;SDS011;9418;52.694;13.294;2023-08-31T12:31:43;1.70;;;1.60;;
18576;SDS011;9418;52.694;13.294;2023-08-31T12:34:10;4.80;;;1.60;;
18576;SDS011;9418;52.694;13.294;2023-08-31T12:36:36;2.67;;;1.80;;
18576;SDS011;9418;52.694;13.294;2023-08-31T12:39:06;3.87;;;1.50;;
18576;SDS011;9418;52.694;13.294;2023-08-31T12:41:35;2.20;;;1.73;;
18576;SDS011;9418;52.694;13.294;2023-08-31T12:44:01;28.73;;;3.20;;
18576;SDS011;9418;52.694;13.294;2023-08-31T12:46:30;2.30;;;1.40;;
18576;SDS011;9418;52.694;13.294;2023-08-31T12:48:57;4.27;;;1.50;;
18576;SDS011;9418;52.694;13.294;2023-08-31T12:51:23;4.40;;;1.47;;
18576;SDS011;9418;52.694;13.294;2023-08-31T12:53:50;2.50;;;1.50;;
18576;SDS011;9418;52.694;13.294;2023-08-31T12:56:16;2.97;;;1.63;;
18576;SDS011;9418;52.694;13.294;2023-08-31T12:58:47;2.43;;;1.73;;
18576;SDS011;9418;52.694;13.294;2023-08-31T13:01:14;2.57;;;1.70;;
18576;SDS011;9418;52.694;13.294;2023-08-31T13:03:42;1.97;;;1.77;;
18576;SDS011;9418;52.694;13.294;2023-08-31T13:06:08;7.80;;;1.70;;
18576;SDS011;9418;52.694;13.294;2023-08-31T13:08:35;2.00;;;1.80;;
18576;SDS011;9418;52.694;13.294;2023-08-31T13:11:02;6.00;;;1.77;;
18576;SDS011;9418;52.694;13.294;2023-08-31T13:13:29;2.40;;;1.20;;
18576;SDS011;9418;52.694;13.294;2023-08-31T13:15:57;2.67;;;1.17;;
18576;SDS011;9418;52.694;13.294;2023-08-31T13:18:23;3.67;;;1.33;;
18576;SDS011;9418;52.694;13.294;2023-08-31T13:20:52;1.77;;;1.27;;
18576;SDS011;9418;52.694;13.294;2023-08-31T13:23:19;5.70;;;2.00;;
18576;SDS011;9418;52.694;13.294;2023-08-31T13:25:45;4.83;;;1.40;;
18576;SDS011;9418;52.694;13.294;2023-08-31T13:28:12;2.90;;;1.30;;
18576;SDS011;9418;52.694;13.294;2023-08-31T13:30:40;10.13;;;1.40;;
18576;SDS011;9418;52.694;13.294;2023-08-31T13:33:07;3.50;;;1.20;;
18576;SDS011;9418;52.694;13.294;2023-08-31T13:35:34;1.80;;;1.33;;
18576;SDS011;9418;52.694;13.294;2023-08-31T13:38:02;1.50;;;1.20;;
18576;SDS011;9418;52.694;13.294;2023-08-31T13:40:29;6.43;;;1.20;;
18576;SDS011;9418;52.694;13.294;2023-08-31T13:42:57;1.63;;;1.20;;
18576;SDS011;9418;52.694;13.294;2023-08-31T13:45:27;4.80;;;1.43;;
18576;SDS011;9418;52.694;13.294;2023-08-31T13:47:54;1.87;;;1.00;;
18576;SDS011;9418;52.694;13.294;2023-08-31T13:50:21;5.53;;;1.20;;
18576;SDS011;9418;52.694;13.294;2023-08-31T13:52:48;2.77;;;1.40;;
18576;SDS011;9418;52.694;13.294;2023-08-31T13:55:16;2.60;;;1.03;;
18576;SDS011;9418;52.694;13.294;2023-08-31T13:57:42;1.83;;;1.40;;
18576;SDS011;9418;52.694;13.294;2023-08-31T14:00:09;3.00;;;1.27;;
18576;SDS011;9418;52.694;13.294;2023-08-31T14:02:37;3.07;;;1.40;;
18576;SDS011;9418;52.694;13.294;2023-08-31T14:05:04;3.40;;;1.17;;
18576;SDS011;9418;52.694;13.294;2023-08-31T14:07:33;1.17;;;1.10;;
18576;SDS011;9418;52.694;13.294;2023-08-31T14:09:59;1.67;;;1.30;;
18576;SDS011;9418;52.694;13.294;2023-08-31T14:12:27;1.90;;;1.40;;
18576;SDS011;9418;52.694;13.294;2023-08-31T14:14:54;1.27;;;1.17;;
18576;SDS011;9418;52.694;13.294;2023-08-31T14:17:20;4.00;;;1.30;;
18576;SDS011;9418;52.694;13.294;2023-08-31T14:19:47;1.30;;;1.20;;
18576;SDS011;9418;52.694;13.294;2023-08-31T14:22:14;1.33;;;1.10;;
18576;SDS011;9418;52.694;13.294;2023-08-31T14:24:41;2.37;;;0.97;;
18576;SDS011;9418;52.694;13.294;2023-08-31T14:27:07;12.37;;;1.50;;
18576;SDS011;9418;52.694;13.294;2023-08-31T14:29:36;8.37;;;2.33;;
18576;SDS011;9418;52.694;13.294;2023-08-31T14:32:02;7.57;;;2.23;;
18576;SDS011;9418;52.694;13.294;2023-08-31T14:34:30;3.03;;;1.37;;
18576;SDS011;9418;52.694;13.294;2023-08-31T14:36:56;5.07;;;1.63;;
18576;SDS011;9418;52.694;13.294;2023-08-31T14:39:24;8.33;;;2.30;;
18576;SDS011;9418;52.694;13.294;2023-08-31T14:41:54;9.43;;;1.63;;
18576;SDS011;9418;52.694;13.294;2023-08-31T14:44:21;7.53;;;1.53;;
18576;SDS011;9418;52.694;13.294;2023-08-31T14:46:49;4.93;;;2.00;;
18576;SDS011;9418;52.694;13.294;2023-08-31T14:49:15;1.93;;;1.73;;
18576;SDS011;9418;52.694;13.294;2023-08-31T14:51:42;3.93;;;1.70;;